Hauptseite
METAR-TAF:

METAR-TAF

Flughäfen :

Fliegerhorst Nordholz

Nordholz, Deutschland

Breite: 53-46N, Länge: 008-40E, Höhe: 23 m

Beobachtung

Neuester Wetterbericht von vor 29 Minuten, um 00:20 UTC
Wind 7 kt aus Süd
Temperatur 7°C
Luftfeuchtigkeit 70%
Luftdruck 1003 hPa
Sichtweite 10 km oder mehr
Leicht bewölkt in der Höhe von 3600 ft
Durchbrochene Bewölkung in der Höhe von 13000 ft

METAR: ETMN 010020Z 17007KT 9999 FEW036 BKN130 07/02 Q1003 BLU

Zeit: 01:49 (00:49 UTC)

Prognose

Neuester Wetterbericht von vor 7 Stunden und 39 Minuten, um 17:10 UTC
Gültige Prognose vom 29 um 18 UTC bis 01 um 03 UTC
Wind 8 kt aus Süd/Südost
Sichtweite 10 km oder mehr
Durchbrochene Bewölkung in der Höhe von 2500 ft

TAF: ETMN 291710Z 2918/0103 16008KT 9999 NSW BKN025

Wetterbeobachtungen und Prognosen von mehr als 4000 Flughäfen (METAR und TAF Bericht).

Die verfügbaren Stationen werden durch gelbe und rote Markierungen auf der Karte dargestellt.

Führen Sie die Maus auf sie, um den Namen der Station zu sehen.

Darauf klicken, um die Beobachtung von Wetterbeobachtungen und Prognosen zu sehen.

Um die Karte zu ändern : klicken Sie auf den grünen Tasten mit einem schwarzen Kreuz Zum Vergrößern, auf den grünen Button mit einem Gedankenstrich zu verkleinern, oder auf die grünen Pfeile für benachbarte Karten.


METAR-TAF: